createdAt,value
2023-01-06T00:01:44.305Z,94998.25
2023-01-06T00:03:52.051Z,95004.47
2023-01-06T00:05:57.085Z,95011.75
2023-01-06T00:07:59.277Z,95013.59
2023-01-06T00:10:00.804Z,95023.09
2023-01-06T00:12:04.205Z,95020.25
2023-01-06T00:14:05.777Z,95024.22
2023-01-06T00:16:12.088Z,95031.41
2023-01-06T00:18:13.703Z,95032.88
2023-01-06T00:20:15.627Z,95039.34
2023-01-06T00:22:17.414Z,95035.59
2023-01-06T00:24:18.972Z,95049.06
2023-01-06T00:26:20.704Z,95040.28
2023-01-06T00:28:22.285Z,95044.25
2023-01-06T00:30:23.858Z,95046.03
2023-01-06T00:32:25.469Z,95052.91
2023-01-06T00:34:27.517Z,95060.19
2023-01-06T00:36:29.083Z,95053.03
2023-01-06T00:38:31.161Z,95041.94
2023-01-06T00:40:32.784Z,95050.06
2023-01-06T00:42:34.312Z,95038.53
2023-01-06T00:44:36.750Z,95040.25
2023-01-06T00:46:38.342Z,95055.63
2023-01-06T00:48:43.129Z,95059.72
2023-01-06T00:50:48.832Z,95069.75
2023-01-06T00:52:50.490Z,95063.16
2023-01-06T00:54:52.193Z,95062.59
2023-01-06T00:56:54.328Z,95051.13
2023-01-06T00:58:55.892Z,95051.38
2023-01-06T01:00:57.497Z,95060.84
2023-01-06T01:02:59.033Z,95061.16
2023-01-06T01:05:00.733Z,95052.25
2023-01-06T01:07:02.353Z,95054.16
2023-01-06T01:09:04.439Z,95058.91
2023-01-06T01:11:09.389Z,95053.97
2023-01-06T01:13:10.918Z,95055.91
2023-01-06T01:15:12.676Z,95061.00
2023-01-06T01:17:15.581Z,95048.34
2023-01-06T01:19:17.456Z,95050.31
2023-01-06T01:21:18.999Z,95061.47
2023-01-06T01:23:20.602Z,95037.56
2023-01-06T01:25:22.228Z,95048.28
2023-01-06T01:27:24.161Z,95053.50
2023-01-06T01:29:25.772Z,95063.41
2023-01-06T01:31:27.450Z,95047.56
2023-01-06T01:33:29.698Z,95050.19
2023-01-06T01:35:31.257Z,95056.38
2023-01-06T01:37:33.046Z,95050.56
2023-01-06T01:39:34.556Z,95055.00
2023-01-06T01:41:36.140Z,95052.25
2023-01-06T01:43:48.066Z,95032.41
2023-01-06T01:45:50.639Z,95026.34
2023-01-06T01:47:56.321Z,95010.53
2023-01-06T01:50:00.532Z,94995.78
2023-01-06T01:52:02.023Z,94993.41
2023-01-06T01:54:04.387Z,94997.69
2023-01-06T01:56:07.415Z,94998.00
2023-01-06T01:58:20.010Z,95001.56
2023-01-06T02:00:21.611Z,94998.13
2023-01-06T02:02:23.297Z,94999.31
2023-01-06T02:04:25.440Z,94989.59
2023-01-06T02:06:27.089Z,94999.63
2023-01-06T02:08:32.139Z,95018.06
2023-01-06T02:10:33.723Z,95016.31
2023-01-06T02:12:35.327Z,95030.34
2023-01-06T02:14:36.883Z,95035.44
2023-01-06T02:16:57.430Z,95047.69
2023-01-06T02:19:19.683Z,95050.31
2023-01-06T02:21:21.288Z,95055.91
2023-01-06T02:23:36.652Z,95066.38
2023-01-06T02:25:57.087Z,95071.84
2023-01-06T02:28:07.496Z,95090.88
2023-01-06T02:30:27.604Z,95063.91
2023-01-06T02:32:32.521Z,95075.34
2023-01-06T02:34:41.952Z,95074.25
2023-01-06T02:36:45.148Z,95070.53
2023-01-06T02:39:13.030Z,95072.22
2023-01-06T02:41:20.767Z,95075.22
2023-01-06T02:43:30.128Z,95059.28
2023-01-06T02:45:50.327Z,95055.69
2023-01-06T02:47:58.042Z,95063.41
2023-01-06T02:49:59.578Z,95069.19
2023-01-06T02:52:02.913Z,95052.00
2023-01-06T02:54:13.634Z,95052.44
2023-01-06T02:56:15.181Z,95054.06
2023-01-06T02:58:25.947Z,95061.91
2023-01-06T03:00:37.465Z,95046.06
2023-01-06T03:02:41.542Z,95046.78
2023-01-06T03:04:43.424Z,95033.41
2023-01-06T03:06:45.924Z,95040.16
2023-01-06T03:08:47.927Z,95044.84
2023-01-06T03:10:49.611Z,95031.09
2023-01-06T03:13:12.363Z,95018.31
2023-01-06T03:15:13.981Z,95022.75
2023-01-06T03:17:15.603Z,95037.19
2023-01-06T03:19:17.179Z,95030.84
2023-01-06T03:21:20.237Z,95042.00
2023-01-06T03:23:21.854Z,95031.97
2023-01-06T03:25:23.372Z,95035.94
2023-01-06T03:27:25.271Z,95047.34
2023-01-06T03:29:26.910Z,95058.22
2023-01-06T03:31:40.550Z,95052.88
2023-01-06T03:33:52.100Z,95061.47
2023-01-06T03:35:56.634Z,95066.63
2023-01-06T03:38:16.603Z,95046.13
2023-01-06T03:40:24.087Z,95039.38
2023-01-06T03:42:57.999Z,95052.50
2023-01-06T03:45:19.935Z,95040.94
2023-01-06T03:47:25.680Z,95040.78
2023-01-06T03:49:31.591Z,95031.84
2023-01-06T03:51:33.136Z,95051.00
2023-01-06T03:53:34.720Z,95034.75
2023-01-06T03:55:36.324Z,95033.78
2023-01-06T03:57:38.461Z,95020.56
2023-01-06T03:59:44.140Z,95029.66
2023-01-06T04:01:45.747Z,95037.38
2023-01-06T04:03:47.477Z,95047.28
2023-01-06T04:05:49.248Z,95036.56
2023-01-06T04:07:50.867Z,95058.53
2023-01-06T04:09:52.515Z,95077.94
2023-01-06T04:12:12.829Z,95075.06
2023-01-06T04:14:14.360Z,95066.81
2023-01-06T04:16:16.007Z,95069.16
2023-01-06T04:18:17.795Z,95086.47
2023-01-06T04:20:25.817Z,95084.84
2023-01-06T04:22:27.678Z,95088.69
2023-01-06T04:24:29.484Z,95096.22
2023-01-06T04:26:31.080Z,95095.28
2023-01-06T04:28:32.721Z,95093.47
2023-01-06T04:30:34.561Z,95089.91
2023-01-06T04:32:36.062Z,95099.97
2023-01-06T04:34:37.589Z,95096.00
2023-01-06T04:36:39.263Z,95104.22
2023-01-06T04:38:40.873Z,95100.94
2023-01-06T04:40:42.882Z,95094.31
2023-01-06T04:43:03.196Z,95097.78
2023-01-06T04:45:04.934Z,95093.94
2023-01-06T04:47:06.640Z,95097.34
2023-01-06T04:49:08.433Z,95101.75
2023-01-06T04:51:10.458Z,95101.59
2023-01-06T04:53:12.392Z,95103.41
2023-01-06T04:55:14.026Z,95110.69
2023-01-06T04:57:15.690Z,95133.38
2023-01-06T04:59:17.335Z,95127.88
2023-01-06T05:01:19.085Z,95139.56
2023-01-06T05:03:20.726Z,95136.97
2023-01-06T05:05:22.274Z,95137.78
2023-01-06T05:07:23.752Z,95136.00
2023-01-06T05:09:25.302Z,95143.53
2023-01-06T05:11:27.355Z,95126.09
2023-01-06T05:13:29.249Z,95136.97
2023-01-06T05:15:30.790Z,95139.28
2023-01-06T05:17:32.425Z,95122.81
2023-01-06T05:19:33.947Z,95138.88
2023-01-06T05:21:35.468Z,95137.66
2023-01-06T05:23:37.634Z,95133.25
2023-01-06T05:25:39.247Z,95140.38
2023-01-06T05:27:40.841Z,95145.75
2023-01-06T05:29:42.429Z,95153.19
2023-01-06T05:31:44.015Z,95157.03
2023-01-06T05:33:45.743Z,95151.78
2023-01-06T05:35:47.266Z,95159.38
2023-01-06T05:37:48.858Z,95168.16
2023-01-06T05:39:50.479Z,95168.16
2023-01-06T05:41:52.051Z,95172.69
2023-01-06T05:43:53.650Z,95171.88
2023-01-06T05:45:55.557Z,95169.25
2023-01-06T05:47:58.092Z,95168.44
2023-01-06T05:49:59.625Z,95157.16
2023-01-06T05:52:01.466Z,95150.97
2023-01-06T05:54:06.994Z,95149.72
2023-01-06T05:56:09.762Z,95164.03
2023-01-06T05:58:11.289Z,95158.22
2023-01-06T06:00:13.081Z,95173.50
2023-01-06T06:02:14.596Z,95165.81
2023-01-06T06:04:16.313Z,95156.88
2023-01-06T06:06:18.128Z,95158.66
2023-01-06T06:08:19.740Z,95155.63
2023-01-06T06:10:21.666Z,95154.28
2023-01-06T06:12:23.270Z,95150.16
2023-01-06T06:14:26.624Z,95142.19
2023-01-06T06:16:28.549Z,95150.41
2023-01-06T06:18:30.349Z,95145.72
2023-01-06T06:20:31.932Z,95147.97
2023-01-06T06:22:33.431Z,95152.22
2023-01-06T06:24:35.185Z,95158.25
2023-01-06T06:26:36.855Z,95168.03
2023-01-06T06:28:38.811Z,95170.53
2023-01-06T06:30:40.399Z,95185.78
2023-01-06T06:32:41.927Z,95179.06
2023-01-06T06:34:43.442Z,95182.47
2023-01-06T06:36:45.016Z,95192.25
2023-01-06T06:38:47.336Z,95189.94
2023-01-06T06:40:48.884Z,95193.25
2023-01-06T06:42:53.584Z,95191.38
2023-01-06T06:44:55.103Z,95203.16
2023-01-06T06:46:56.662Z,95195.84
2023-01-06T06:48:58.261Z,95195.44
2023-01-06T06:51:04.265Z,95200.59
2023-01-06T06:53:06.277Z,95202.97
2023-01-06T06:55:08.135Z,95200.66
2023-01-06T06:57:09.646Z,95207.22
2023-01-06T06:59:11.232Z,95206.72
2023-01-06T07:01:13.943Z,95220.88
2023-01-06T07:03:15.603Z,95218.69
2023-01-06T07:05:17.933Z,95218.81
2023-01-06T07:07:19.504Z,95217.69
2023-01-06T07:09:21.025Z,95224.47
2023-01-06T07:11:22.744Z,95223.56
2023-01-06T07:13:24.384Z,95229.59
2023-01-06T07:15:25.921Z,95236.19
2023-01-06T07:17:27.999Z,95231.38
2023-01-06T07:19:29.594Z,95274.75
2023-01-06T07:21:31.117Z,95240.34
2023-01-06T07:23:32.844Z,95238.28
2023-01-06T07:25:34.416Z,95231.13
2023-01-06T07:27:36.370Z,95249.44
2023-01-06T07:29:37.876Z,95248.06
2023-01-06T07:31:39.562Z,95256.03
2023-01-06T07:33:41.155Z,95253.69
2023-01-06T07:35:42.699Z,95261.28
2023-01-06T07:37:47.372Z,95261.13
2023-01-06T07:39:48.877Z,95265.41
2023-01-06T07:41:50.383Z,95253.13
2023-01-06T07:43:52.571Z,95248.03
2023-01-06T07:45:54.301Z,95251.88
2023-01-06T07:47:56.492Z,95269.34
2023-01-06T07:49:58.295Z,95262.91
2023-01-06T07:51:59.848Z,95267.59
2023-01-06T07:54:01.774Z,95267.03
2023-01-06T07:56:03.400Z,95256.25
2023-01-06T07:58:08.323Z,95256.81
2023-01-06T08:00:10.227Z,95254.19
2023-01-06T08:02:12.132Z,95255.94
2023-01-06T08:04:13.951Z,95273.59
2023-01-06T08:06:15.593Z,95268.41
2023-01-06T08:08:17.391Z,95266.47
2023-01-06T08:10:18.962Z,95268.09
2023-01-06T08:12:20.650Z,95269.25
2023-01-06T08:14:25.424Z,95258.38
2023-01-06T08:16:27.052Z,95266.50
2023-01-06T08:18:28.752Z,95266.78
2023-01-06T08:20:30.395Z,95247.13
2023-01-06T08:22:31.969Z,95246.94
2023-01-06T08:24:33.588Z,95264.31
2023-01-06T08:26:35.152Z,95277.00
2023-01-06T08:28:36.846Z,95285.53
2023-01-06T08:30:40.201Z,95276.31
2023-01-06T08:32:41.919Z,95284.44
2023-01-06T08:34:44.030Z,95271.34
2023-01-06T08:36:46.048Z,95277.41
2023-01-06T08:38:48.037Z,95286.09
2023-01-06T08:40:51.782Z,95285.94
2023-01-06T08:42:53.867Z,95291.72
2023-01-06T08:44:55.510Z,95273.41
2023-01-06T08:46:57.434Z,95283.34
2023-01-06T08:48:59.036Z,95286.63
2023-01-06T08:51:08.289Z,95280.16
2023-01-06T08:53:10.393Z,95280.56
2023-01-06T08:55:11.989Z,95277.66
2023-01-06T08:57:16.064Z,95279.81
2023-01-06T08:59:17.691Z,95284.41
2023-01-06T09:01:20.279Z,95275.75
2023-01-06T09:03:22.462Z,95285.69
2023-01-06T09:05:24.051Z,95287.44
2023-01-06T09:07:25.594Z,95291.78
2023-01-06T09:09:27.499Z,95272.66
2023-01-06T09:11:29.069Z,95268.59
2023-01-06T09:13:30.598Z,95250.66
2023-01-06T09:15:32.250Z,95248.59
2023-01-06T09:17:33.829Z,95258.94
2023-01-06T09:19:35.560Z,95269.84
2023-01-06T09:21:37.448Z,95280.31
2023-01-06T09:23:39.337Z,95251.81
2023-01-06T09:25:40.829Z,95263.81
2023-01-06T09:27:42.326Z,95265.56
2023-01-06T09:29:43.990Z,95268.28
2023-01-06T09:31:45.495Z,95271.66
2023-01-06T09:33:47.087Z,95269.03
2023-01-06T09:35:48.670Z,95263.91
2023-01-06T09:37:50.330Z,95257.03
2023-01-06T09:39:51.915Z,95260.75
2023-01-06T09:41:53.511Z,95238.16
2023-01-06T09:44:13.674Z,95239.81
2023-01-06T09:46:16.737Z,95235.94
2023-01-06T09:48:19.321Z,95235.91
2023-01-06T09:50:30.219Z,95244.00
2023-01-06T09:52:40.239Z,95237.25
2023-01-06T09:55:09.208Z,95225.63
2023-01-06T09:57:15.975Z,95227.91
2023-01-06T09:59:20.232Z,95235.69
2023-01-06T10:01:24.087Z,95249.41
2023-01-06T10:03:25.969Z,95228.72
2023-01-06T10:05:29.320Z,95233.44
2023-01-06T10:07:33.928Z,95236.28
2023-01-06T10:10:03.347Z,95225.59
2023-01-06T10:12:07.833Z,95221.31
2023-01-06T10:14:17.560Z,95214.53
2023-01-06T10:16:23.252Z,95222.16
2023-01-06T10:18:27.831Z,95222.06
2023-01-06T10:20:50.531Z,95196.06
2023-01-06T10:22:52.373Z,95226.69
2023-01-06T10:24:55.580Z,95208.63
2023-01-06T10:26:58.422Z,95206.56
2023-01-06T10:29:15.829Z,95203.03
2023-01-06T10:31:17.767Z,95208.13
2023-01-06T10:33:19.513Z,95219.25
2023-01-06T10:35:21.963Z,95216.03
2023-01-06T10:37:23.982Z,95210.22
2023-01-06T10:39:25.726Z,95205.44
2023-01-06T10:41:27.267Z,95212.13
2023-01-06T10:43:29.490Z,95207.81
2023-01-06T10:45:41.189Z,95200.28
2023-01-06T10:47:43.138Z,95199.91
2023-01-06T10:49:44.690Z,95195.22
2023-01-06T10:51:51.796Z,95178.00
2023-01-06T10:53:53.860Z,95181.22
2023-01-06T10:55:55.360Z,95179.28
2023-01-06T10:57:57.379Z,95160.06
2023-01-06T11:00:09.098Z,95153.19
2023-01-06T11:02:10.657Z,95154.41
2023-01-06T11:04:13.173Z,95169.47
2023-01-06T11:06:27.915Z,95168.56
2023-01-06T11:08:29.462Z,95178.75
2023-01-06T11:10:35.103Z,95169.25
2023-01-06T11:12:36.754Z,95180.31
2023-01-06T11:14:38.542Z,95169.66
2023-01-06T11:16:40.154Z,95172.75
2023-01-06T11:18:42.108Z,95167.81
2023-01-06T11:20:43.632Z,95164.53
2023-01-06T11:22:45.175Z,95169.09
2023-01-06T11:24:53.973Z,95171.38
2023-01-06T11:26:55.483Z,95167.28
2023-01-06T11:28:57.111Z,95178.59
2023-01-06T11:31:00.004Z,95181.03
2023-01-06T11:33:01.582Z,95169.09
2023-01-06T11:35:03.961Z,95150.69
2023-01-06T11:37:06.215Z,95164.41
2023-01-06T11:39:14.988Z,95153.19
2023-01-06T11:41:22.141Z,95156.44
2023-01-06T11:43:25.745Z,95159.91
2023-01-06T11:45:31.539Z,95158.16
2023-01-06T11:47:33.071Z,95159.34
2023-01-06T11:49:36.260Z,95165.94
2023-01-06T11:51:43.678Z,95177.56
2023-01-06T11:53:55.674Z,95184.06
2023-01-06T11:56:18.227Z,95171.56
2023-01-06T11:58:21.531Z,95172.78
2023-01-06T12:00:23.059Z,95173.22
2023-01-06T12:02:26.222Z,95171.78
2023-01-06T12:04:30.252Z,95161.31
2023-01-06T12:06:36.381Z,95162.81
2023-01-06T12:08:40.382Z,95173.16
2023-01-06T12:10:41.925Z,95174.47
2023-01-06T12:12:43.657Z,95184.47
2023-01-06T12:14:45.248Z,95175.09
2023-01-06T12:16:49.554Z,95177.63
2023-01-06T12:18:51.213Z,95183.78
2023-01-06T12:20:52.950Z,95179.13
2023-01-06T12:22:54.656Z,95180.41
2023-01-06T12:24:56.585Z,95179.50
2023-01-06T12:26:58.201Z,95175.97
2023-01-06T12:28:59.804Z,95175.97
2023-01-06T12:31:03.861Z,95161.28
2023-01-06T12:33:13.873Z,95164.97
2023-01-06T12:35:17.062Z,95175.31
2023-01-06T12:37:32.394Z,95179.81
2023-01-06T12:39:45.901Z,95179.59
2023-01-06T12:41:47.432Z,95178.75
2023-01-06T12:44:09.235Z,95185.19
2023-01-06T12:46:15.927Z,95181.53
2023-01-06T12:48:29.368Z,95173.28
2023-01-06T12:50:38.875Z,95177.34
2023-01-06T12:52:41.708Z,95178.16
2023-01-06T12:54:43.263Z,95185.72
2023-01-06T12:56:53.966Z,95199.75
2023-01-06T12:59:11.405Z,95188.88
2023-01-06T13:01:15.958Z,95197.72
2023-01-06T13:03:37.825Z,95191.69
2023-01-06T13:06:02.466Z,95193.88
2023-01-06T13:08:12.170Z,95188.78
2023-01-06T13:10:28.989Z,95191.00
2023-01-06T13:12:33.704Z,95201.97
2023-01-06T13:14:53.995Z,95187.91
2023-01-06T13:17:04.489Z,95201.00
2023-01-06T13:19:09.014Z,95208.09
2023-01-06T13:21:18.056Z,95205.56
2023-01-06T13:23:39.918Z,95205.84
2023-01-06T13:26:00.391Z,95211.19
2023-01-06T13:28:15.785Z,95213.13
2023-01-06T13:30:20.212Z,95219.09
2023-01-06T13:32:54.298Z,95223.81
2023-01-06T13:35:04.646Z,95219.13
2023-01-06T13:37:21.315Z,95222.97
2023-01-06T13:39:23.486Z,95228.22
2023-01-06T13:41:26.512Z,95233.91
2023-01-06T13:43:31.093Z,95235.09
2023-01-06T13:45:42.930Z,95229.34
2023-01-06T13:47:44.826Z,95241.84
2023-01-06T13:49:46.425Z,95249.88
2023-01-06T13:51:48.012Z,95257.28
2023-01-06T13:53:50.807Z,95254.75
2023-01-06T13:56:10.889Z,95266.31
2023-01-06T13:58:25.674Z,95254.25
2023-01-06T14:00:28.184Z,95262.41
2023-01-06T14:02:36.211Z,95255.53
2023-01-06T14:04:42.973Z,95262.56
2023-01-06T14:06:44.910Z,95250.94
2023-01-06T14:08:57.251Z,95249.53
2023-01-06T14:11:03.164Z,95246.34
2023-01-06T14:13:05.441Z,95244.31
2023-01-06T14:15:07.929Z,95255.78
2023-01-06T14:17:28.166Z,95247.66
2023-01-06T14:19:37.351Z,95244.34
2023-01-06T14:21:38.814Z,95258.44
2023-01-06T14:24:12.950Z,95261.88
2023-01-06T14:26:14.713Z,95273.53
2023-01-06T14:28:19.579Z,95261.09
2023-01-06T14:30:21.476Z,95260.63
2023-01-06T14:32:22.946Z,95267.34
2023-01-06T14:34:24.499Z,95268.38
2023-01-06T14:36:26.367Z,95262.22
2023-01-06T14:38:30.099Z,95259.19
2023-01-06T14:40:34.669Z,95263.88
2023-01-06T14:42:39.639Z,95255.34
2023-01-06T14:44:44.536Z,95262.50
2023-01-06T14:46:49.073Z,95270.06
2023-01-06T14:48:52.230Z,95266.38
2023-01-06T14:50:56.505Z,95272.59
2023-01-06T14:52:59.637Z,95279.06
2023-01-06T14:55:01.833Z,95276.22
2023-01-06T14:57:06.353Z,95274.44
2023-01-06T14:59:12.812Z,95262.59
2023-01-06T15:01:22.097Z,95269.34
2023-01-06T15:03:24.350Z,95257.94
2023-01-06T15:05:52.551Z,95260.72
2023-01-06T15:07:58.234Z,95264.06
2023-01-06T15:10:13.869Z,95264.16
2023-01-06T15:12:25.579Z,95258.53
2023-01-06T15:14:28.289Z,95265.00
2023-01-06T15:16:34.965Z,95271.47
2023-01-06T15:18:36.775Z,95267.50
2023-01-06T15:20:42.020Z,95277.53
2023-01-06T15:22:45.898Z,95285.81
2023-01-06T15:24:47.485Z,95277.41
2023-01-06T15:26:49.765Z,95274.50
2023-01-06T15:29:04.852Z,95275.34
2023-01-06T15:31:06.579Z,95278.09
2023-01-06T15:33:09.311Z,95270.00
2023-01-06T15:35:15.505Z,95274.91
2023-01-06T15:37:21.083Z,95267.06
2023-01-06T15:39:31.466Z,95285.53
2023-01-06T15:41:33.070Z,95290.75
2023-01-06T15:43:38.452Z,95286.34
2023-01-06T15:45:40.088Z,95292.84
2023-01-06T15:47:44.299Z,95285.53
2023-01-06T15:49:48.329Z,95288.69
2023-01-06T15:52:04.925Z,95297.91
2023-01-06T15:54:06.726Z,95290.47
2023-01-06T15:56:09.089Z,95290.22
2023-01-06T15:58:16.686Z,95285.66
2023-01-06T16:00:19.537Z,95284.16
2023-01-06T16:02:21.351Z,95295.00
2023-01-06T16:04:23.621Z,95291.84
2023-01-06T16:06:25.327Z,95301.63
2023-01-06T16:08:28.072Z,95301.22
2023-01-06T16:10:34.050Z,95313.59
2023-01-06T16:12:35.865Z,95319.38
2023-01-06T16:14:45.672Z,95310.31
2023-01-06T16:16:47.208Z,95319.09
2023-01-06T16:18:48.781Z,95307.53
2023-01-06T16:20:50.375Z,95310.28
2023-01-06T16:22:52.480Z,95309.34
2023-01-06T16:24:54.273Z,95305.63
2023-01-06T16:27:00.093Z,95304.25
2023-01-06T16:29:02.799Z,95301.22
2023-01-06T16:31:05.520Z,95292.25
2023-01-06T16:33:27.009Z,95303.69
2023-01-06T16:35:29.557Z,95310.13
2023-01-06T16:37:34.232Z,95301.47
2023-01-06T16:39:35.852Z,95305.47
2023-01-06T16:41:37.656Z,95305.22
2023-01-06T16:43:39.191Z,95304.13
2023-01-06T16:45:41.844Z,95293.94
2023-01-06T16:47:43.492Z,95305.91
2023-01-06T16:49:45.065Z,95294.34
2023-01-06T16:51:46.747Z,95308.81
2023-01-06T16:53:48.650Z,95310.84
2023-01-06T16:55:51.093Z,95308.53
2023-01-06T16:57:52.630Z,95311.13
2023-01-06T16:59:54.228Z,95314.69
2023-01-06T17:01:56.189Z,95318.00
2023-01-06T17:03:59.212Z,95324.59
2023-01-06T17:06:00.776Z,95325.00
2023-01-06T17:08:03.009Z,95326.78
2023-01-06T17:10:07.092Z,95321.41
2023-01-06T17:12:12.484Z,95319.91
2023-01-06T17:14:14.900Z,95318.53
2023-01-06T17:16:17.720Z,95315.25
2023-01-06T17:18:20.955Z,95335.56
2023-01-06T17:20:22.692Z,95323.47
2023-01-06T17:22:26.586Z,95319.63
2023-01-06T17:24:28.227Z,95320.47
2023-01-06T17:26:29.798Z,95320.47
2023-01-06T17:28:31.530Z,95318.50
2023-01-06T17:30:33.234Z,95331.16
2023-01-06T17:32:38.521Z,95328.97
2023-01-06T17:34:40.069Z,95333.78
2023-01-06T17:36:42.395Z,95333.91
2023-01-06T17:38:44.207Z,95330.75
2023-01-06T17:40:45.869Z,95337.50
2023-01-06T17:42:49.490Z,95338.47
2023-01-06T17:44:55.164Z,95341.09
2023-01-06T17:46:56.746Z,95342.16
2023-01-06T17:49:03.396Z,95341.03
2023-01-06T17:51:05.057Z,95350.63
2023-01-06T17:53:38.893Z,95358.63
2023-01-06T17:55:47.488Z,95344.16
2023-01-06T17:57:48.984Z,95347.47
2023-01-06T17:59:52.047Z,95352.72
2023-01-06T18:01:53.700Z,95347.59
2023-01-06T18:03:58.128Z,95349.28
2023-01-06T18:06:01.083Z,95338.84
2023-01-06T18:08:05.418Z,95336.78
2023-01-06T18:10:09.682Z,95354.69
2023-01-06T18:12:11.434Z,95349.47
2023-01-06T18:14:21.202Z,95347.81
2023-01-06T18:16:32.557Z,95347.38
2023-01-06T18:18:36.278Z,95345.19
2023-01-06T18:20:38.005Z,95352.31
2023-01-06T18:22:40.696Z,95349.28
2023-01-06T18:24:42.468Z,95354.47
2023-01-06T18:26:49.155Z,95354.31
2023-01-06T18:28:50.854Z,95347.66
2023-01-06T18:30:55.447Z,95339.19
2023-01-06T18:32:57.044Z,95347.13
2023-01-06T18:34:59.758Z,95346.44
2023-01-06T18:37:01.719Z,95351.59
2023-01-06T18:39:03.490Z,95350.78
2023-01-06T18:41:06.453Z,95349.88
2023-01-06T18:43:20.314Z,95350.44
2023-01-06T18:45:29.406Z,95342.56
2023-01-06T18:47:31.431Z,95332.38
2023-01-06T18:49:33.676Z,95339.94
2023-01-06T18:51:35.208Z,95336.38
2023-01-06T18:53:38.089Z,95345.44
2023-01-06T18:55:41.903Z,95346.25
2023-01-06T18:57:46.046Z,95357.41
2023-01-06T18:59:47.634Z,95337.91
2023-01-06T19:01:50.083Z,95348.63
2023-01-06T19:03:58.131Z,95351.66
2023-01-06T19:06:09.060Z,95350.13
2023-01-06T19:08:11.569Z,95351.94
2023-01-06T19:10:24.347Z,95354.97
2023-01-06T19:12:32.891Z,95350.31
2023-01-06T19:14:36.234Z,95349.88
2023-01-06T19:16:39.184Z,95363.19
2023-01-06T19:18:40.671Z,95359.88
2023-01-06T19:20:42.490Z,95369.88
2023-01-06T19:22:44.319Z,95378.06
2023-01-06T19:24:47.670Z,95374.75
2023-01-06T19:26:49.214Z,95379.56
2023-01-06T19:28:52.137Z,95378.28
2023-01-06T19:30:54.156Z,95369.75
2023-01-06T19:32:58.090Z,95373.84
2023-01-06T19:34:59.675Z,95371.66
2023-01-06T19:37:01.241Z,95376.00
2023-01-06T19:39:03.708Z,95374.16
2023-01-06T19:41:07.862Z,95370.97
2023-01-06T19:43:16.727Z,95375.97
2023-01-06T19:45:36.253Z,95372.66
2023-01-06T19:47:39.244Z,95378.56
2023-01-06T19:49:41.069Z,95369.72
2023-01-06T19:51:42.947Z,95368.38
2023-01-06T19:53:45.336Z,95367.59
2023-01-06T19:55:46.936Z,95367.84
2023-01-06T19:57:52.926Z,95371.03
2023-01-06T19:59:56.253Z,95367.44
2023-01-06T20:01:59.909Z,95371.16
2023-01-06T20:04:01.693Z,95368.13
2023-01-06T20:06:03.699Z,95363.72
2023-01-06T20:08:05.563Z,95363.44
2023-01-06T20:10:07.218Z,95373.06
2023-01-06T20:12:08.735Z,95376.13
2023-01-06T20:14:10.378Z,95369.56
2023-01-06T20:16:12.091Z,95365.19
2023-01-06T20:18:13.964Z,95363.66
2023-01-06T20:20:15.720Z,95365.44
2023-01-06T20:22:17.294Z,95377.16
2023-01-06T20:24:19.003Z,95373.47
2023-01-06T20:26:20.697Z,95365.25
2023-01-06T20:28:22.432Z,95369.75
2023-01-06T20:30:24.004Z,95363.53
2023-01-06T20:32:25.477Z,95373.28
2023-01-06T20:34:26.988Z,95372.13
2023-01-06T20:36:29.200Z,95373.22
2023-01-06T20:38:30.850Z,95377.72
2023-01-06T20:40:32.469Z,95374.03
2023-01-06T20:42:34.181Z,95371.03
2023-01-06T20:44:35.681Z,95373.91
2023-01-06T20:46:37.183Z,95374.59
2023-01-06T20:48:38.765Z,95378.81
2023-01-06T20:50:42.109Z,95381.66
2023-01-06T20:52:45.445Z,95378.13
2023-01-06T20:54:47.059Z,95381.09
2023-01-06T20:56:48.525Z,95383.59
2023-01-06T20:58:50.331Z,95389.78
2023-01-06T21:00:51.800Z,95383.00
2023-01-06T21:02:53.537Z,95381.94
2023-01-06T21:04:55.149Z,95382.06
2023-01-06T21:06:56.732Z,95370.41
2023-01-06T21:08:58.471Z,95377.03
2023-01-06T21:11:00.007Z,95384.72
2023-01-06T21:13:01.505Z,95375.94
2023-01-06T21:15:03.336Z,95372.50
2023-01-06T21:17:04.954Z,95376.75
2023-01-06T21:19:06.491Z,95377.09
2023-01-06T21:21:08.130Z,95377.34
2023-01-06T21:23:10.264Z,95379.31
2023-01-06T21:25:11.939Z,95374.09
2023-01-06T21:27:13.587Z,95374.59
2023-01-06T21:29:15.108Z,95375.34
2023-01-06T21:31:16.665Z,95380.84
2023-01-06T21:33:21.184Z,95384.16
2023-01-06T21:35:23.147Z,95374.03
2023-01-06T21:37:24.767Z,95368.53
2023-01-06T21:39:27.044Z,95371.53
2023-01-06T21:41:47.416Z,95376.66
2023-01-06T21:43:48.950Z,95377.09
2023-01-06T21:45:50.558Z,95382.44
2023-01-06T21:47:52.110Z,95385.56
2023-01-06T21:49:53.746Z,95385.56
2023-01-06T21:51:55.260Z,95388.72
2023-01-06T21:53:56.723Z,95389.00
2023-01-06T21:55:58.562Z,95387.19
2023-01-06T21:58:00.146Z,95381.97
2023-01-06T22:00:01.622Z,95384.88
2023-01-06T22:02:04.862Z,95378.94
2023-01-06T22:04:06.850Z,95376.22
2023-01-06T22:06:08.576Z,95379.50
2023-01-06T22:08:10.141Z,95379.06
2023-01-06T22:10:12.527Z,95379.19
2023-01-06T22:12:14.718Z,95373.97
2023-01-06T22:14:17.549Z,95377.78
2023-01-06T22:16:19.272Z,95376.72
2023-01-06T22:18:20.929Z,95371.63
2023-01-06T22:20:22.614Z,95363.66
2023-01-06T22:22:24.327Z,95372.50
2023-01-06T22:24:25.868Z,95371.44
2023-01-06T22:26:27.466Z,95367.03
2023-01-06T22:28:29.303Z,95367.72
2023-01-06T22:30:31.002Z,95359.91
2023-01-06T22:32:32.772Z,95359.78
2023-01-06T22:34:34.440Z,95365.00
2023-01-06T22:36:36.029Z,95361.81
2023-01-06T22:38:37.820Z,95355.75
2023-01-06T22:40:39.639Z,95357.66
2023-01-06T22:42:41.587Z,95358.75
2023-01-06T22:44:43.216Z,95362.84
2023-01-06T22:46:44.748Z,95361.63
2023-01-06T22:48:46.655Z,95356.41
2023-01-06T22:50:55.490Z,95362.56
2023-01-06T22:52:57.016Z,95373.72
2023-01-06T22:54:58.558Z,95370.41
2023-01-06T22:57:00.015Z,95368.31
2023-01-06T22:59:01.530Z,95368.69
2023-01-06T23:01:04.894Z,95366.91
2023-01-06T23:03:06.524Z,95371.72
2023-01-06T23:05:08.620Z,95367.91
2023-01-06T23:07:10.459Z,95358.88
2023-01-06T23:09:12.005Z,95353.22
2023-01-06T23:11:14.593Z,95352.53
2023-01-06T23:13:16.166Z,95348.94
2023-01-06T23:15:17.700Z,95352.41
2023-01-06T23:17:19.409Z,95349.22
2023-01-06T23:19:21.060Z,95351.44
2023-01-06T23:21:23.105Z,95352.97
2023-01-06T23:23:24.696Z,95348.72
2023-01-06T23:25:26.289Z,95342.78
2023-01-06T23:27:28.899Z,95339.03
2023-01-06T23:29:32.716Z,95344.13
2023-01-06T23:31:36.616Z,95336.16
2023-01-06T23:33:42.438Z,95332.13
2023-01-06T23:35:44.133Z,95331.00
2023-01-06T23:37:45.812Z,95338.03
2023-01-06T23:39:48.023Z,95342.19
2023-01-06T23:41:49.568Z,95331.09
2023-01-06T23:43:51.419Z,95341.09
2023-01-06T23:45:52.976Z,95341.34
2023-01-06T23:47:54.502Z,95347.63
2023-01-06T23:49:56.077Z,95353.63
2023-01-06T23:51:57.621Z,95352.91
2023-01-06T23:53:59.562Z,95352.69
2023-01-06T23:56:04.783Z,95346.19
2023-01-06T23:58:06.358Z,95345.84
